Time;durP1;ratioP1;P1;durP2;ratioP2;P2;SDS_P1;SDS_P2;PMS_P1;PMS_P2;Temp;Humidity;BMP_temperature;BMP_pressure;BME280_temperature;BME280_humidity;BME280_pressure;Samples;Min_cycle;Max_cycle;Signal;HPM_P1;HPM_P2
2022/12/03 00:02:16;;;;;;;26.60;14.13;;;2.20;99.90;;;;;;6271082;22;20625;-75
2022/12/03 00:04:46;;;;;;;24.70;13.57;;;2.10;99.90;;;;;;6270339;22;20450;-75
2022/12/03 00:07:12;;;;;;;26.40;13.90;;;2.10;99.90;;;;;;6271483;22;20471;-75
2022/12/03 00:09:39;;;;;;;21.33;13.10;;;2.10;99.90;;;;;;6282532;22;20427;-75
2022/12/03 00:12:06;;;;;;;30.10;13.57;;;2.10;99.90;;;;;;6303215;22;20473;-76
2022/12/03 00:14:33;;;;;;;25.83;12.83;;;2.00;99.90;;;;;;6303595;22;20794;-75
2022/12/03 00:17:00;;;;;;;25.33;14.63;;;2.00;99.90;;;;;;6303096;22;20442;-76
2022/12/03 00:19:35;;;;;;;27.00;12.17;;;2.60;99.90;;;;;;6303054;22;20435;-75
2022/12/03 00:22:03;;;;;;;21.07;10.53;;;2.20;99.90;;;;;;6302394;22;20395;-75
2022/12/03 00:24:30;;;;;;;25.47;13.33;;;2.20;99.90;;;;;;6303048;22;20782;-75
2022/12/03 00:26:57;;;;;;;21.80;13.23;;;2.20;99.90;;;;;;6303245;22;20537;-75
2022/12/03 00:29:32;;;;;;;29.03;14.93;;;2.10;99.90;;;;;;6303218;22;20415;-75
2022/12/03 00:31:59;;;;;;;30.63;13.97;;;2.00;99.90;;;;;;6303297;22;20463;-75
2022/12/03 00:34:26;;;;;;;24.67;12.70;;;2.10;99.90;;;;;;6303514;22;20416;-74
2022/12/03 00:36:53;;;;;;;21.27;12.00;;;2.00;99.90;;;;;;6304289;22;20415;-75
2022/12/03 00:39:21;;;;;;;30.70;14.57;;;2.10;99.90;;;;;;6305952;22;20448;-76
2022/12/03 00:41:48;;;;;;;25.70;14.27;;;2.10;99.90;;;;;;6306399;22;20413;-75
2022/12/03 00:44:15;;;;;;;24.87;12.30;;;2.10;99.90;;;;;;6309775;22;20432;-79
2022/12/03 00:46:48;;;;;;;19.70;11.93;;;2.20;99.90;;;;;;6310532;22;20470;-77
2022/12/03 00:49:15;;;;;;;20.87;12.23;;;2.00;99.90;;;;;;6305477;22;20416;-74
2022/12/03 00:51:41;;;;;;;26.23;12.43;;;2.00;99.90;;;;;;6303116;22;20420;-75
2022/12/03 00:54:08;;;;;;;23.60;11.40;;;2.10;99.90;;;;;;6303297;22;20404;-75
2022/12/03 00:56:38;;;;;;;25.30;12.03;;;2.90;99.90;;;;;;6302959;22;20428;-75
2022/12/03 00:59:05;;;;;;;25.43;12.70;;;2.00;99.90;;;;;;6303244;22;20400;-77
2022/12/03 01:01:32;;;;;;;26.30;13.90;;;1.90;99.90;;;;;;6302966;22;20818;-75
2022/12/03 01:03:59;;;;;;;23.33;12.70;;;1.90;99.90;;;;;;6303231;22;20411;-74
2022/12/03 01:06:26;;;;;;;24.10;13.27;;;1.90;99.90;;;;;;6302855;22;20489;-74
2022/12/03 01:08:59;;;;;;;27.53;12.10;;;1.80;99.90;;;;;;6302901;22;20416;-74
2022/12/03 01:11:38;;;;;;;26.13;12.43;;;1.80;99.90;;;;;;6303718;22;20397;-75
2022/12/03 01:14:09;;;;;;;33.73;13.40;;;1.70;99.90;;;;;;6302777;22;20884;-74
2022/12/03 01:16:37;;;;;;;24.87;12.67;;;1.60;99.90;;;;;;6303229;22;20442;-75
2022/12/03 01:19:07;;;;;;;27.07;12.10;;;1.50;99.90;;;;;;6302767;22;20482;-75
2022/12/03 01:21:34;;;;;;;25.67;12.47;;;1.50;99.90;;;;;;6303810;22;20401;-74
2022/12/03 01:24:01;;;;;;;27.10;12.80;;;1.50;99.90;;;;;;6303324;22;20401;-75
2022/12/03 01:26:28;;;;;;;26.53;13.13;;;1.60;99.90;;;;;;6303053;22;20518;-74
2022/12/03 01:28:59;;;;;;;21.53;11.70;;;1.60;99.90;;;;;;6302981;22;20415;-75
2022/12/03 01:34:11;;;;;;;30.80;12.23;;;1.60;99.90;;;;;;6302883;22;20387;-74
2022/12/03 01:36:39;;;;;;;31.40;14.20;;;1.60;99.90;;;;;;6302392;22;20416;-75
2022/12/03 01:39:06;;;;;;;24.23;13.47;;;1.20;99.90;;;;;;6305560;22;20544;-77
2022/12/03 01:41:34;;;;;;;24.20;13.07;;;1.60;99.90;;;;;;6305258;22;20803;-75
2022/12/03 01:44:02;;;;;;;33.13;13.33;;;1.60;99.90;;;;;;6303319;22;20416;-74
2022/12/03 01:46:46;;;;;;;22.50;11.00;;;1.60;99.90;;;;;;6302869;22;20626;-74
2022/12/03 01:49:20;;;;;;;29.37;13.40;;;1.50;99.90;;;;;;6303069;22;20442;-74
2022/12/03 01:51:48;;;;;;;28.53;14.67;;;1.50;99.90;;;;;;6302829;22;20885;-76
2022/12/03 01:54:18;;;;;;;23.47;11.33;;;1.50;99.90;;;;;;6302619;22;20732;-74
2022/12/03 01:59:32;;;;;;;26.50;14.53;;;1.40;99.90;;;;;;6302623;22;20411;-74
2022/12/03 02:02:11;;;;;;;30.50;15.50;;;1.30;99.90;;;;;;6302513;22;20433;-75
2022/12/03 02:04:44;;;;;;;28.50;14.37;;;1.40;99.90;;;;;;6303058;22;20404;-75
2022/12/03 02:07:19;;;;;;;25.50;14.27;;;1.40;99.90;;;;;;6304267;22;20489;-74
2022/12/03 02:09:46;;;;;;;26.33;13.73;;;1.40;99.90;;;;;;6306558;22;20424;-75
2022/12/03 02:12:15;;;;;;;27.20;11.20;;;1.40;99.90;;;;;;6308351;22;20411;-76
2022/12/03 02:14:42;;;;;;;27.80;12.87;;;1.40;99.90;;;;;;6310248;22;20468;-75
2022/12/03 02:17:15;;;;;;;29.50;12.80;;;1.30;99.90;;;;;;6309490;22;20431;-76
2022/12/03 02:19:42;;;;;;;22.80;12.40;;;1.30;99.90;;;;;;6302872;22;20785;-75
2022/12/03 02:22:21;;;;;;;25.60;10.20;;;1.30;99.90;;;;;;6301443;22;20415;-75
2022/12/03 02:24:53;;;;;;;23.00;11.90;;;1.20;99.90;;;;;;6303259;22;20423;-76
2022/12/03 02:27:27;;;;;;;20.90;9.20;;;2.10;99.90;;;;;;6302788;22;20384;-75
2022/12/03 02:29:54;;;;;;;18.90;11.37;;;1.10;99.90;;;;;;6301923;22;20434;-75
2022/12/03 02:32:22;;;;;;;21.70;10.23;;;0.90;99.90;;;;;;6301617;22;20645;-75
2022/12/03 02:34:49;;;;;;;23.07;9.97;;;1.00;99.90;;;;;;6302253;22;20415;-75
2022/12/03 02:37:22;;;;;;;21.37;11.13;;;1.00;99.90;;;;;;6301654;22;20774;-75
2022/12/03 02:39:52;;;;;;;25.27;11.13;;;1.00;99.90;;;;;;6302098;22;20505;-75
2022/12/03 02:42:36;;;;;;;28.73;12.50;;;1.00;99.90;;;;;;6301524;22;20416;-74
2022/12/03 02:45:07;;;;;;;19.30;10.17;;;1.10;99.90;;;;;;6304075;22;20457;-76
2022/12/03 02:47:38;;;;;;;22.20;12.10;;;1.00;99.90;;;;;;6303040;22;20385;-75
2022/12/03 02:50:11;;;;;;;22.13;13.10;;;1.10;99.90;;;;;;6302022;22;20389;-75
2022/12/03 02:52:39;;;;;;;20.90;10.27;;;1.00;99.90;;;;;;6301368;22;20916;-75
2022/12/03 02:55:08;;;;;;;22.70;10.93;;;1.00;99.90;;;;;;6302151;22;20403;-77
2022/12/03 02:57:38;;;;;;;21.37;11.27;;;1.00;99.90;;;;;;6303005;22;20411;-76
2022/12/03 03:00:08;;;;;;;21.20;10.43;;;0.90;99.90;;;;;;6298785;22;20466;-75
2022/12/03 03:02:36;;;;;;;30.30;14.07;;;1.00;99.90;;;;;;6301021;22;20917;-75
2022/12/03 03:05:05;;;;;;;26.87;11.70;;;1.00;99.90;;;;;;6301387;22;20405;-77
2022/12/03 03:07:32;;;;;;;22.93;10.30;;;1.00;99.90;;;;;;6301892;22;20887;-76
2022/12/03 03:10:00;;;;;;;17.93;9.73;;;1.10;99.90;;;;;;6301334;22;20467;-75
2022/12/03 03:12:27;;;;;;;16.73;9.63;;;1.10;99.90;;;;;;6301187;22;20724;-75
2022/12/03 03:14:56;;;;;;;19.10;10.80;;;1.20;99.90;;;;;;6300660;22;20716;-76
2022/12/03 03:17:24;;;;;;;20.20;10.00;;;0.70;99.90;;;;;;6300983;22;20738;-75
2022/12/03 03:19:51;;;;;;;18.83;11.40;;;1.10;99.90;;;;;;6300765;22;20807;-75
2022/12/03 03:22:19;;;;;;;24.10;9.47;;;1.10;99.90;;;;;;6301658;22;20808;-75
2022/12/03 03:24:54;;;;;;;21.37;11.33;;;1.10;99.90;;;;;;6301506;22;20436;-75
2022/12/03 03:27:21;;;;;;;25.60;10.83;;;1.20;99.90;;;;;;6302833;22;20470;-76
2022/12/03 03:29:48;;;;;;;17.33;10.13;;;1.10;99.90;;;;;;6302233;22;20412;-74
2022/12/03 03:32:17;;;;;;;19.43;11.13;;;1.10;99.90;;;;;;6301539;22;20442;-74
2022/12/03 03:34:43;;;;;;;18.90;9.83;;;1.00;99.90;;;;;;6301167;22;20412;-74
2022/12/03 03:37:10;;;;;;;17.03;10.77;;;1.90;99.90;;;;;;6301326;22;20721;-75
2022/12/03 03:39:38;;;;;;;18.03;10.33;;;1.10;99.90;;;;;;6302501;22;21097;-74
2022/12/03 03:42:05;;;;;;;21.10;11.10;;;1.60;99.90;;;;;;6302322;22;20407;-74
2022/12/03 03:44:38;;;;;;;19.00;10.83;;;1.20;99.90;;;;;;6304094;22;20960;-74
2022/12/03 03:47:05;;;;;;;24.33;11.30;;;1.80;99.90;;;;;;6304226;22;20496;-74
2022/12/03 03:49:34;;;;;;;23.70;10.77;;;1.10;99.90;;;;;;6304758;22;20473;-74
2022/12/03 03:52:01;;;;;;;23.03;10.93;;;1.10;99.90;;;;;;6305491;22;20716;-75
2022/12/03 03:54:28;;;;;;;22.30;12.00;;;1.00;99.90;;;;;;6304838;22;20431;-75
2022/12/03 03:57:04;;;;;;;19.43;12.97;;;1.00;99.90;;;;;;6305644;22;20407;-74
2022/12/03 03:59:31;;;;;;;18.77;10.43;;;1.10;99.90;;;;;;6306832;22;20436;-74
2022/12/03 04:01:58;;;;;;;21.07;10.97;;;1.10;99.90;;;;;;6308080;22;20472;-74
2022/12/03 04:04:26;;;;;;;16.97;10.90;;;1.10;99.90;;;;;;6309435;22;20416;-74
2022/12/03 04:06:54;;;;;;;22.97;11.20;;;1.00;99.90;;;;;;6307219;22;20444;-74
2022/12/03 04:09:22;;;;;;;21.67;11.97;;;1.00;99.90;;;;;;6303881;22;20945;-74
2022/12/03 04:14:33;;;;;;;23.40;10.80;;;1.10;99.90;;;;;;6304129;22;20374;-74
2022/12/03 04:17:00;;;;;;;19.63;10.83;;;1.10;99.90;;;;;;6303959;22;20412;-74
2022/12/03 04:19:27;;;;;;;19.03;10.23;;;1.00;99.90;;;;;;6304439;22;20781;-74
2022/12/03 04:24:48;;;;;;;19.80;8.90;;;1.00;99.90;;;;;;6304385;22;20434;-74
2022/12/03 04:29:59;;;;;;;17.00;10.30;;;1.00;99.90;;;;;;6304720;22;20736;-74
2022/12/03 04:38:00;;;;;;;17.90;10.47;;;0.90;99.90;;;;;;6309719;22;20426;-75
2022/12/03 04:43:12;;;;;;;15.93;9.50;;;0.80;99.90;;;;;;6305576;22;20883;-75
2022/12/03 04:45:39;;;;;;;17.73;9.47;;;0.90;99.90;;;;;;6304918;22;20416;-74
2022/12/03 04:48:06;;;;;;;20.17;9.90;;;0.90;99.90;;;;;;6306079;22;20446;-75
2022/12/03 04:50:41;;;;;;;17.70;9.13;;;0.80;99.90;;;;;;6302907;22;20408;-74
2022/12/03 04:53:09;;;;;;;18.43;10.03;;;0.80;99.90;;;;;;6303098;22;20463;-75
2022/12/03 04:55:36;;;;;;;18.93;9.37;;;0.80;99.90;;;;;;6303035;22;20407;-76
2022/12/03 04:58:03;;;;;;;14.77;7.70;;;0.80;99.90;;;;;;6305871;22;20401;-76
2022/12/03 05:00:34;;;;;;;18.83;10.33;;;1.10;99.90;;;;;;6306003;22;20839;-76
2022/12/03 05:03:01;;;;;;;18.23;8.53;;;0.80;99.90;;;;;;6305782;22;20411;-76
2022/12/03 05:05:28;;;;;;;20.00;9.50;;;0.80;99.90;;;;;;6306446;22;20752;-75
2022/12/03 05:07:54;;;;;;;21.90;10.87;;;0.80;99.90;;;;;;6311266;22;20455;-76
2022/12/03 05:10:24;;;;;;;17.60;9.60;;;0.60;99.90;;;;;;6310241;22;20476;-77
2022/12/03 05:12:51;;;;;;;22.17;10.53;;;0.50;99.90;;;;;;6308401;22;20419;-76
2022/12/03 05:15:18;;;;;;;20.30;10.13;;;0.60;99.90;;;;;;6309393;22;20488;-76
2022/12/03 05:17:45;;;;;;;23.47;11.80;;;0.60;99.90;;;;;;6311322;22;20416;-77
2022/12/03 05:22:58;;;;;;;16.37;9.57;;;0.60;99.90;;;;;;6310941;22;20378;-77
2022/12/03 05:25:26;;;;;;;22.10;11.13;;;0.90;99.90;;;;;;6310305;22;20412;-76
2022/12/03 05:27:53;;;;;;;20.63;9.97;;;0.60;99.90;;;;;;6306841;22;20470;-77
2022/12/03 05:30:21;;;;;;;17.73;9.27;;;1.30;99.90;;;;;;6309401;22;20404;-76
2022/12/03 05:32:52;;;;;;;16.20;9.17;;;0.60;99.90;;;;;;6305567;22;20489;-76
2022/12/03 05:35:19;;;;;;;22.43;9.90;;;0.70;99.90;;;;;;6303844;22;20395;-75
2022/12/03 05:37:46;;;;;;;21.97;11.83;;;0.70;99.90;;;;;;6302601;22;20400;-75
2022/12/03 05:40:14;;;;;;;15.70;8.10;;;0.70;99.90;;;;;;6303393;22;20967;-76
2022/12/03 05:42:52;;;;;;;12.80;8.33;;;0.80;99.90;;;;;;6303244;22;20950;-75
2022/12/03 05:45:19;;;;;;;18.77;10.20;;;0.80;99.90;;;;;;6303408;22;20854;-74
2022/12/03 05:47:46;;;;;;;15.87;9.53;;;0.70;99.90;;;;;;6303045;22;20952;-74
2022/12/03 05:50:13;;;;;;;17.80;9.70;;;0.80;99.90;;;;;;6302971;22;20464;-74
2022/12/03 05:52:42;;;;;;;18.77;9.10;;;1.30;99.90;;;;;;6303206;22;20444;-74
2022/12/03 07:02:43;;;;;;;17.77;10.33;;;0.90;99.90;;;;;;6287735;22;20470;-78
2022/12/03 07:05:26;;;;;;;24.20;11.27;;;0.90;99.90;;;;;;6295013;22;20408;-81
2022/12/03 07:24:16;;;;;;;21.40;10.80;;;1.00;99.90;;;;;;6293076;22;20421;-78
2022/12/03 07:26:44;;;;;;;16.60;10.40;;;1.00;99.90;;;;;;6278167;22;20474;-79
2022/12/03 07:29:12;;;;;;;22.07;11.40;;;1.00;99.90;;;;;;6284524;22;20734;-78
2022/12/03 07:45:28;;;;;;;25.10;10.23;;;0.90;99.90;;;;;;6277157;22;20742;-79
2022/12/03 07:47:55;;;;;;;20.83;11.30;;;1.00;99.90;;;;;;6276699;22;20488;-78
2022/12/03 09:10:12;;;;;;;20.47;11.60;;;1.20;99.90;;;;;;6212623;22;20469;-77
2022/12/03 09:12:39;;;;;;;26.50;12.30;;;1.20;99.90;;;;;;6184349;23;20413;-74
2022/12/03 09:15:07;;;;;;;29.40;13.67;;;1.30;99.90;;;;;;6182002;23;20412;-75
2022/12/03 09:17:39;;;;;;;18.73;12.17;;;1.20;99.90;;;;;;6187904;23;20404;-77
2022/12/03 09:20:07;;;;;;;22.10;12.13;;;1.20;99.90;;;;;;6185853;23;20424;-76
2022/12/03 09:22:34;;;;;;;25.17;13.03;;;1.30;99.90;;;;;;6184279;23;20469;-77
2022/12/03 11:00:40;;;;;;;17.13;11.80;;;1.50;99.90;;;;;;6240453;23;20412;-76
2022/12/03 11:03:17;;;;;;;20.03;9.83;;;2.20;99.90;;;;;;6235866;23;20414;-74
2022/12/03 11:05:50;;;;;;;24.00;12.20;;;1.50;99.90;;;;;;6240029;23;20430;-74
2022/12/03 11:08:22;;;;;;;20.20;10.20;;;1.60;99.90;;;;;;6240174;23;20437;-76
2022/12/03 11:11:00;;;;;;;24.50;12.30;;;1.60;99.90;;;;;;6215214;23;20534;-76
2022/12/03 11:13:44;;;;;;;24.53;12.13;;;1.60;99.90;;;;;;6209531;23;20904;-76
2022/12/03 11:16:17;;;;;;;20.70;11.63;;;1.80;99.90;;;;;;6209076;23;20410;-75
2022/12/03 11:19:02;;;;;;;26.30;14.30;;;1.80;99.90;;;;;;6209168;23;20395;-76
2022/12/03 11:21:29;;;;;;;27.70;12.10;;;1.80;99.90;;;;;;6210008;23;20422;-76
2022/12/03 11:24:18;;;;;;;30.93;13.63;;;1.60;99.90;;;;;;6210217;23;20445;-75
2022/12/03 11:27:14;;;;;;;25.90;14.50;;;1.50;99.90;;;;;;6193520;23;20558;-76
2022/12/03 11:44:49;;;;;;;23.83;12.27;;;1.30;99.90;;;;;;6223574;22;20471;-80
2022/12/03 12:02:28;;;;;;;26.03;12.90;;;1.40;99.90;;;;;;6246101;23;20416;-75
2022/12/03 12:05:15;;;;;;;27.80;13.70;;;1.40;99.90;;;;;;6243594;23;20410;-73
2022/12/03 12:07:44;;;;;;;22.20;13.03;;;1.50;99.90;;;;;;6214408;23;20787;-74
2022/12/03 12:10:11;;;;;;;24.83;13.13;;;1.50;99.90;;;;;;6225330;23;20467;-74
2022/12/03 12:12:40;;;;;;;30.57;14.17;;;1.50;99.90;;;;;;6211857;23;20911;-76
2022/12/03 12:15:44;;;;;;;30.60;14.47;;;2.10;99.90;;;;;;6211771;23;20418;-73
2022/12/03 12:18:55;;;;;;;20.13;11.80;;;1.50;99.90;;;;;;6211155;23;20422;-72
2022/12/03 12:21:43;;;;;;;33.83;12.40;;;1.50;99.90;;;;;;6210788;23;21137;-72
2022/12/03 12:24:30;;;;;;;24.00;11.57;;;1.50;99.90;;;;;;6209462;23;20414;-72
2022/12/03 12:26:59;;;;;;;21.30;11.23;;;1.40;99.90;;;;;;6210509;23;20454;-74
2022/12/03 12:29:26;;;;;;;35.80;13.97;;;1.40;99.90;;;;;;6210316;23;20415;-72
2022/12/03 12:31:59;;;;;;;27.13;14.87;;;1.40;99.90;;;;;;6210012;23;20414;-72
2022/12/03 12:34:26;;;;;;;21.73;12.87;;;1.20;99.90;;;;;;6209740;23;20405;-71
2022/12/03 12:36:56;;;;;;;24.93;12.63;;;1.40;99.90;;;;;;6210936;23;20421;-73
2022/12/03 12:39:23;;;;;;;20.63;12.40;;;1.40;99.90;;;;;;6210674;23;20951;-73
2022/12/03 12:41:53;;;;;;;59.83;37.27;;;1.30;99.90;;;;;;6210707;23;20417;-70
2022/12/03 12:44:25;;;;;;;25.60;14.47;;;1.80;99.90;;;;;;6211066;23;20413;-71
2022/12/03 12:46:54;;;;;;;20.13;12.63;;;1.50;99.90;;;;;;6211285;23;20390;-71
2022/12/03 12:49:25;;;;;;;23.83;11.03;;;1.60;99.90;;;;;;6210539;23;20438;-71
2022/12/03 12:51:53;;;;;;;22.20;11.90;;;1.50;99.90;;;;;;6210574;23;20861;-72
2022/12/03 12:54:20;;;;;;;22.07;12.13;;;1.50;99.90;;;;;;6209468;23;20450;-74
2022/12/03 12:56:52;;;;;;;25.00;12.40;;;1.70;99.90;;;;;;6209941;23;20438;-72
2022/12/03 12:59:20;;;;;;;25.83;13.83;;;1.50;99.90;;;;;;6217106;23;20460;-71
2022/12/03 13:01:49;;;;;;;23.27;11.50;;;1.60;99.90;;;;;;6240151;23;20410;-72
2022/12/03 13:04:19;;;;;;;28.30;13.67;;;1.60;99.90;;;;;;6238702;23;20405;-71
2022/12/03 13:06:47;;;;;;;32.93;14.50;;;1.60;99.90;;;;;;6240281;23;20406;-73
2022/12/03 13:09:17;;;;;;;29.50;16.60;;;1.60;99.90;;;;;;6240384;22;20461;-72
2022/12/03 13:11:46;;;;;;;27.40;14.00;;;1.60;99.90;;;;;;6240037;23;20463;-73
2022/12/03 13:17:01;;;;;;;26.00;13.13;;;1.50;99.90;;;;;;6238231;23;20421;-73
2022/12/03 13:19:33;;;;;;;30.90;14.20;;;1.50;99.90;;;;;;6239127;23;20434;-73
2022/12/03 13:22:01;;;;;;;24.30;13.20;;;1.50;99.90;;;;;;6240147;23;20394;-74
2022/12/03 13:24:33;;;;;;;24.20;12.70;;;1.40;99.90;;;;;;6239770;23;20418;-77
2022/12/03 13:29:53;;;;;;;21.80;13.33;;;1.40;99.90;;;;;;6238968;23;20418;-73
2022/12/03 13:32:22;;;;;;;23.97;12.30;;;1.40;99.90;;;;;;6239893;23;20448;-75
2022/12/03 13:34:51;;;;;;;27.57;11.73;;;1.50;99.90;;;;;;6238957;23;20413;-74
2022/12/03 13:37:20;;;;;;;24.83;13.43;;;1.50;99.90;;;;;;6240081;23;20410;-73
2022/12/03 13:39:49;;;;;;;20.47;12.30;;;1.60;99.90;;;;;;6239589;23;20967;-75
2022/12/03 13:42:40;;;;;;;28.57;15.80;;;1.50;99.90;;;;;;6239596;23;20480;-75
2022/12/03 13:45:33;;;;;;;29.23;13.63;;;1.40;99.90;;;;;;6240301;23;20402;-75
2022/12/03 13:48:03;;;;;;;20.60;11.67;;;1.40;99.90;;;;;;6239577;23;20771;-74
2022/12/03 13:50:52;;;;;;;26.87;13.53;;;1.70;99.90;;;;;;6242794;23;20418;-75
2022/12/03 13:53:22;;;;;;;22.13;12.67;;;1.40;99.90;;;;;;6245989;23;20414;-74
2022/12/03 13:55:54;;;;;;;29.03;12.63;;;1.50;99.90;;;;;;6247694;23;20440;-75
2022/12/03 13:58:21;;;;;;;22.90;12.10;;;1.40;99.90;;;;;;6245586;23;20394;-73
2022/12/03 14:00:54;;;;;;;28.83;13.37;;;1.40;99.90;;;;;;6246677;23;20442;-74
2022/12/03 14:03:33;;;;;;;24.37;14.00;;;1.30;99.90;;;;;;6243240;23;20402;-74
2022/12/03 14:06:05;;;;;;;19.73;11.53;;;1.40;99.90;;;;;;6241927;23;20898;-72
2022/12/03 14:08:32;;;;;;;23.13;12.00;;;1.30;99.90;;;;;;6241021;23;20446;-74
2022/12/03 14:10:58;;;;;;;25.67;14.20;;;1.70;99.90;;;;;;6242199;22;20517;-74
2022/12/03 14:13:25;;;;;;;28.40;13.37;;;1.30;99.90;;;;;;6241501;23;20991;-73
2022/12/03 14:18:35;;;;;;;31.80;13.50;;;1.30;99.90;;;;;;6240630;23;20455;-72
2022/12/03 14:21:03;;;;;;;23.13;10.97;;;1.40;99.90;;;;;;6240204;23;20460;-72
2022/12/03 14:23:30;;;;;;;26.33;13.80;;;1.40;99.90;;;;;;6242048;23;20444;-73
2022/12/03 14:26:03;;;;;;;18.70;10.30;;;2.40;99.90;;;;;;6241188;23;20430;-72
2022/12/03 14:28:30;;;;;;;21.83;13.37;;;1.40;99.90;;;;;;6244956;23;20434;-79
2022/12/03 14:30:57;;;;;;;25.93;15.13;;;1.30;99.90;;;;;;6247984;23;20891;-74
2022/12/03 14:33:23;;;;;;;22.97;13.27;;;1.30;99.90;;;;;;6246032;23;20488;-73
2022/12/03 14:35:59;;;;;;;25.57;13.13;;;1.40;99.90;;;;;;6244353;23;20418;-73
2022/12/03 14:38:27;;;;;;;22.13;11.07;;;1.30;99.90;;;;;;6243607;23;20397;-72
2022/12/03 14:40:54;;;;;;;18.17;10.50;;;1.30;99.90;;;;;;6243686;23;20405;-73
2022/12/03 14:43:23;;;;;;;22.53;12.40;;;1.30;99.90;;;;;;6244614;23;20413;-72
2022/12/03 14:45:52;;;;;;;22.87;11.50;;;1.30;99.90;;;;;;6240401;23;20409;-73
2022/12/03 14:48:18;;;;;;;22.47;11.07;;;1.20;99.90;;;;;;6238524;23;20436;-75
2022/12/03 14:50:45;;;;;;;21.70;11.97;;;1.30;99.90;;;;;;6241357;23;20410;-74
2022/12/03 14:53:12;;;;;;;21.27;9.50;;;1.30;99.90;;;;;;6240424;23;20411;-74
2022/12/03 14:55:41;;;;;;;25.63;11.03;;;1.20;99.90;;;;;;6238160;23;20452;-74
2022/12/03 14:58:08;;;;;;;23.53;12.23;;;1.20;99.90;;;;;;6238706;23;20433;-74
2022/12/03 15:00:34;;;;;;;24.87;14.40;;;1.10;99.90;;;;;;6238560;23;20947;-75
2022/12/03 15:03:03;;;;;;;25.07;13.40;;;2.00;99.90;;;;;;6238709;23;20927;-75
2022/12/03 15:05:30;;;;;;;29.33;13.17;;;1.10;99.90;;;;;;6239123;23;20390;-74
2022/12/03 15:07:57;;;;;;;38.90;16.00;;;1.00;99.90;;;;;;6237640;23;20738;-75
2022/12/03 15:10:24;;;;;;;24.37;14.23;;;1.10;99.90;;;;;;6239328;22;20485;-74
2022/12/03 15:12:54;;;;;;;34.50;15.10;;;1.10;99.90;;;;;;6238661;23;20452;-74
2022/12/03 15:15:21;;;;;;;19.93;12.20;;;1.00;99.90;;;;;;6238792;23;20932;-73
2022/12/03 15:17:48;;;;;;;30.70;16.20;;;1.10;99.90;;;;;;6238181;23;20438;-74
2022/12/03 15:20:17;;;;;;;22.13;12.83;;;0.90;99.90;;;;;;6239125;23;20413;-74
2022/12/03 15:22:44;;;;;;;32.23;16.23;;;0.90;99.90;;;;;;6237919;23;20449;-74
2022/12/03 15:25:12;;;;;;;27.73;13.70;;;1.00;99.90;;;;;;6238773;23;20433;-74
2022/12/03 15:27:43;;;;;;;26.77;13.07;;;1.00;99.90;;;;;;6237933;23;20433;-74
2022/12/03 15:30:11;;;;;;;22.27;11.53;;;1.00;99.90;;;;;;6238669;23;20495;-74
2022/12/03 15:32:38;;;;;;;29.73;14.80;;;1.10;99.90;;;;;;6236896;23;20414;-75
2022/12/03 15:35:06;;;;;;;29.00;14.70;;;1.10;99.90;;;;;;6238987;23;20414;-74
2022/12/03 15:37:34;;;;;;;36.90;15.33;;;1.10;99.90;;;;;;6237620;23;20460;-74
2022/12/03 15:40:01;;;;;;;37.40;17.20;;;1.10;99.90;;;;;;6238608;23;20965;-74
2022/12/03 15:42:28;;;;;;;30.23;15.50;;;1.10;99.90;;;;;;6239494;23;20422;-74
2022/12/03 15:44:55;;;;;;;34.37;15.27;;;1.00;99.90;;;;;;6240388;23;20888;-75
2022/12/03 15:47:32;;;;;;;30.17;15.23;;;1.40;99.90;;;;;;6240884;23;20405;-74
2022/12/03 15:49:59;;;;;;;29.07;13.90;;;0.80;99.90;;;;;;6240872;23;20425;-73
2022/12/03 15:52:26;;;;;;;23.67;13.90;;;0.70;99.90;;;;;;6240240;23;20413;-75
2022/12/03 15:54:54;;;;;;;27.40;14.50;;;0.80;99.90;;;;;;6240492;23;20422;-74
2022/12/03 15:57:25;;;;;;;32.13;15.63;;;0.80;99.90;;;;;;6240992;23;20523;-74
2022/12/03 15:59:57;;;;;;;28.97;15.27;;;0.70;99.90;;;;;;6239859;23;20433;-74
2022/12/03 16:02:32;;;;;;;27.50;14.00;;;0.80;99.90;;;;;;6241171;23;20398;-74
2022/12/03 16:04:59;;;;;;;31.27;13.33;;;0.90;99.90;;;;;;6240330;23;20882;-74
2022/12/03 16:07:26;;;;;;;29.87;13.87;;;1.00;99.90;;;;;;6240084;23;20417;-74
2022/12/03 16:10:00;;;;;;;25.57;13.93;;;1.00;99.90;;;;;;6240392;22;20453;-75
2022/12/03 16:12:28;;;;;;;30.10;14.73;;;0.90;99.90;;;;;;6240831;23;20401;-74
2022/12/03 16:14:55;;;;;;;27.43;14.57;;;0.90;99.90;;;;;;6239955;23;20804;-74
2022/12/03 16:17:22;;;;;;;31.93;14.67;;;0.90;99.90;;;;;;6240694;23;20778;-75
2022/12/03 16:19:52;;;;;;;23.33;14.37;;;0.90;99.90;;;;;;6240368;23;20402;-74
2022/12/03 16:22:25;;;;;;;27.87;14.53;;;1.00;99.90;;;;;;6239944;23;20405;-73
2022/12/03 16:24:54;;;;;;;28.97;14.20;;;1.00;99.90;;;;;;6240715;23;20444;-75
2022/12/03 16:27:21;;;;;;;22.10;13.40;;;1.10;99.90;;;;;;6241120;23;20508;-74
2022/12/03 16:29:48;;;;;;;23.40;12.80;;;1.00;99.90;;;;;;6239390;23;20450;-74
2022/12/03 16:32:15;;;;;;;29.10;12.97;;;1.00;99.90;;;;;;6239931;23;20472;-73
2022/12/03 16:34:42;;;;;;;27.13;14.37;;;1.00;99.90;;;;;;6239739;23;20406;-74
2022/12/03 16:37:19;;;;;;;27.33;14.53;;;0.90;99.90;;;;;;6232020;23;20418;-73
2022/12/03 16:39:46;;;;;;;24.93;11.90;;;0.90;99.90;;;;;;6236603;23;20446;-73
2022/12/03 16:42:13;;;;;;;27.40;12.63;;;0.90;99.90;;;;;;6237146;23;21010;-73
2022/12/03 16:45:21;;;;;;;27.13;13.30;;;0.90;99.90;;;;;;6237324;23;20803;-73
2022/12/03 16:47:51;;;;;;;29.17;13.47;;;1.00;99.90;;;;;;6237386;23;20421;-73
2022/12/03 16:50:18;;;;;;;27.20;12.83;;;0.90;99.90;;;;;;6236517;23;20457;-73
2022/12/03 16:52:46;;;;;;;29.93;12.70;;;0.90;99.90;;;;;;6237507;23;20418;-73
2022/12/03 16:55:14;;;;;;;22.13;12.10;;;0.90;99.90;;;;;;6237336;23;20413;-73
2022/12/03 16:57:41;;;;;;;27.77;14.10;;;0.90;99.90;;;;;;6242344;23;20805;-73
2022/12/03 17:00:09;;;;;;;20.33;11.57;;;0.90;99.90;;;;;;6240454;23;20787;-73
2022/12/03 17:02:36;;;;;;;23.00;13.07;;;0.90;99.90;;;;;;6237622;23;20424;-73
2022/12/03 17:05:12;;;;;;;27.87;13.90;;;0.90;99.90;;;;;;6237025;23;20748;-73
2022/12/03 17:07:43;;;;;;;26.33;15.23;;;0.80;99.90;;;;;;6236932;23;20407;-73
2022/12/03 17:10:11;;;;;;;35.97;17.73;;;0.90;99.90;;;;;;6236714;22;20484;-73
2022/12/03 17:12:38;;;;;;;38.43;17.07;;;0.90;99.90;;;;;;6236374;23;20571;-72
2022/12/03 17:15:06;;;;;;;36.37;18.70;;;1.00;99.90;;;;;;6237488;23;20414;-73
2022/12/03 17:17:33;;;;;;;35.30;18.00;;;0.80;99.90;;;;;;6237400;23;20414;-73
2022/12/03 17:20:00;;;;;;;34.10;15.57;;;0.80;99.90;;;;;;6237197;23;20413;-74
2022/12/03 17:22:30;;;;;;;36.83;18.17;;;0.70;99.90;;;;;;6236522;23;20471;-74
2022/12/03 17:24:57;;;;;;;29.93;14.27;;;0.80;99.90;;;;;;6236859;23;20476;-74
2022/12/03 17:27:33;;;;;;;35.63;15.27;;;1.50;99.90;;;;;;6236737;23;20417;-76
2022/12/03 17:30:00;;;;;;;34.03;17.40;;;0.80;99.90;;;;;;6237309;23;20871;-74
2022/12/03 17:32:27;;;;;;;35.77;16.60;;;0.60;99.90;;;;;;6236444;23;20448;-74
2022/12/03 17:34:54;;;;;;;40.07;17.47;;;0.70;99.90;;;;;;6236905;23;20907;-73
2022/12/03 17:37:23;;;;;;;33.17;18.50;;;0.60;99.90;;;;;;6237048;23;20813;-73
2022/12/03 17:39:53;;;;;;;33.73;15.70;;;0.50;99.90;;;;;;6236642;23;20448;-73
2022/12/03 17:42:20;;;;;;;36.97;17.70;;;0.60;99.90;;;;;;6236413;23;20865;-73
2022/12/03 17:44:49;;;;;;;31.30;16.20;;;0.60;99.90;;;;;;6236511;23;20737;-72
2022/12/03 17:47:16;;;;;;;30.33;14.93;;;0.50;99.90;;;;;;6237122;23;20409;-74
2022/12/03 17:49:43;;;;;;;30.33;15.10;;;0.50;99.90;;;;;;6237244;23;20453;-73
2022/12/03 17:52:10;;;;;;;34.10;17.83;;;0.50;99.90;;;;;;6237262;23;20475;-73
2022/12/03 17:54:43;;;;;;;31.07;16.10;;;0.60;99.90;;;;;;6236684;23;21089;-73
2022/12/03 17:57:36;;;;;;;29.10;15.60;;;0.70;99.90;;;;;;6236552;23;20402;-73
2022/12/03 18:00:39;;;;;;;28.17;13.83;;;0.70;99.90;;;;;;6236276;23;20441;-73
2022/12/03 18:03:23;;;;;;;34.43;15.37;;;0.90;99.90;;;;;;6235604;23;20394;-73
2022/12/03 18:14:37;;;;;;;31.87;15.60;;;0.60;99.90;;;;;;6265680;22;20540;-76
2022/12/03 18:17:18;;;;;;;37.57;17.70;;;0.70;99.90;;;;;;6267335;22;20747;-76
2022/12/03 18:20:12;;;;;;;26.87;15.10;;;0.50;99.90;;;;;;6271145;22;20926;-77
2022/12/03 18:22:39;;;;;;;35.93;17.17;;;0.60;99.90;;;;;;6274927;22;20400;-77
2022/12/03 18:25:07;;;;;;;30.00;18.10;;;0.70;99.90;;;;;;6275074;22;20401;-76
2022/12/03 18:27:37;;;;;;;30.83;15.40;;;0.60;99.90;;;;;;6273136;22;20479;-76
2022/12/03 18:30:05;;;;;;;28.77;15.80;;;0.40;99.90;;;;;;6270546;22;20527;-77
2022/12/03 18:32:33;;;;;;;35.37;15.53;;;0.60;99.90;;;;;;6267399;22;20528;-77
2022/12/03 18:35:01;;;;;;;32.80;15.60;;;0.60;99.90;;;;;;6268403;22;20446;-76
2022/12/03 18:37:29;;;;;;;27.93;14.20;;;0.70;99.90;;;;;;6267793;22;20445;-76
2022/12/03 18:40:04;;;;;;;30.53;16.77;;;0.60;99.90;;;;;;6268055;22;20824;-76